AirNav   Everest Fuels
 
 1075 users online  

8MD2 Montebello Filtration Plant Heliport
Baltimore, Maryland, USA

GOING TO BALTIMORE?


FAA INFORMATION EFFECTIVE 16 JUNE 2022

Location

FAA Identifier: 8MD2
Lat/Long: 39-20-10.0000N 076-35-12.0000W
39-20.166667N 076-35.200000W
39.3361111,-76.5866667
(estimated)
Elevation: 223 ft. / 68 m (estimated)
Variation: 11W (1995)
From city: 4 miles NE of BALTIMORE, MD
Time zone: UTC -4 (UTC -5 during Standard Time)
Zip code: 21218

Heliport Operations

Heliport use: Private use. Permission required prior to landing
Activation date: 06/1999
Control tower: no
ARTCC: WASHINGTON CENTER
FSS: LEESBURG FLIGHT SERVICE STATION
Attendance: CONTINUOUS
Wind indicator: lighted
Segmented circle: no

Heliport Communications

WX AWOS-3PT at MTN (8 nm E): 124.925 (410-682-8848)
WX ASOS at BWI (10 nm S): PHONE 410-691-1278
WX AWOS-3 at FME (17 nm SW): 123.925

Heliport Services

Runway Information

Helipad H1

Dimensions: 20 x 20 ft. / 6 x 6 m
Surface: concrete
Traffic pattern: leftleft

Heliport Ownership and Management from official FAA records

Ownership: Privately-owned
Owner: CITY OF BALTIMORE
3901 HILLEN RD
BALTIMORE, MD 21218
Phone 410-396-6091
Manager: ANDRE MOSELEY
3901 HILLEN RD
BALTIMORE, MD 21218
Phone (410) 396-6091

Additional Remarks

A52-H1 RY H1 117 FT BLDG 115 FT NE.
FOR CD CTC POTOMAC APCH AT 866-429-5882.
INTER USE BY HWY RSCU HEL WHEN HOPKINS & UNION HOSP HELIPORTS ARE OTS

Instrument Procedures

There are no published instrument procedures at 8MD2.

Some nearby airports with instrument procedures:

KMTN - Martin State Airport (8 nm E)
KBWI - Baltimore/Washington International Thurgood Marshall Airport (10 nm S)
KEDG - Weide Army Heliport (Aberdeen Proving Ground) (14 nm E)
KFME - Tipton Airport (17 nm SW)
KAPG - Phillips Army Airfield (21 nm E)
 
Loc | Ops | Rwys | IFR | FBO | Links
Com | Nav | Svcs | Stats | Notes
Area around 8MD2 (Montebello Filtration Plant Heliport)
 
Road maps at: MapQuest Bing Google
 
Aerial photo
No photo
 
Sectional chart

 
Airport distance calculator
Flying to Montebello Filtration Plant Heliport? Find the distance to fly.

From to 8MD2

Sunrise and sunset
Times for 02-Jul-2022
 Local
(UTC-4)
 Zulu
(UTC)
Morning civil twilight05:1309:13
Sunrise05:4509:45
Sunset20:3600:36
Evening civil twilight21:0801:08

Current date and time
Zulu (UTC)  02-Jul-2022 15:30:32
Local (UTC-4)  02-Jul-2022 11:30:32
 
METAR
KMTN 
8nm E 
021454Z 13006KT 10SM CLR 28/23 A2997
KBWI 
11nm SW 
021454Z VRB05KT 10SM FEW020 FEW140 BKN220 BKN250 32/22 A2995 RMK AO2 SLP140 T03170217 55001
KFME 
17nm SW 
021459Z AUTO 19004KT 10SM CLR 28/23 A2999 RMK AO1
TAF
KMTN 
8nm E 
021125Z 0212/0312 16005KT P6SM BKN130 FM021300 21008G16KT P6SM VCSH FEW050 SCT200 FM021900 17008G16KT P6SM -SHRA VCTS BKN050CB BKN130 FM030000 VRB04KT 6SM -SHRA BKN050 BKN130 FM030300 VRB03KT 5SM BR BKN050 BKN200 FM030900 34005KT P6SM SCT050 BKN130
KBWI 
11nm SW 
021125Z 0212/0318 23008G16KT P6SM VCSH FEW050 BKN130 FM021900 21008G16KT P6SM -SHRA VCTS BKN050CB BKN130 FM030000 VRB04KT 6SM -SHRA BKN050 BKN130 FM030300 VRB03KT 5SM BR BKN050 BKN130 FM030900 34005KT P6SM SCT050 BKN130
NOTAMs
Click for the latest NOTAMs
NOTAMs are issued by the DoD/FAA and will open in a separate window not controlled by AirNav.

 

 
 

Would you like to see your business listed on this page?

 If your business provides an interesting product or service to pilots, flight crews, aircraft, or users of the Montebello Filtration Plant Heliport, you should consider listing it here.  To start the listing process, click on the button below
 
Add a business
 

Other Pages about Montebello Filtration Plant Heliport

Update a link
 
Copyright © AirNav, LLC. All rights reserved. Privacy Policy  Contact